createdAt,value
2022-09-14T00:01:28.892Z,12.38
2022-09-14T00:04:10.643Z,12.49
2022-09-14T00:07:04.685Z,12.44
2022-09-14T00:09:50.956Z,12.17
2022-09-14T00:12:36.834Z,12.23
2022-09-14T00:15:24.545Z,12.48
2022-09-14T00:18:03.071Z,12.50
2022-09-14T00:20:41.935Z,12.42
2022-09-14T00:23:27.120Z,12.30
2022-09-14T00:26:21.384Z,12.27
2022-09-14T00:29:08.985Z,12.43
2022-09-14T00:32:19.347Z,12.39
2022-09-14T00:34:59.480Z,12.54
2022-09-14T00:37:36.264Z,12.63
2022-09-14T00:40:19.067Z,12.75
2022-09-14T00:43:08.295Z,12.88
2022-09-14T00:45:48.703Z,12.95
2022-09-14T00:48:33.237Z,13.01
2022-09-14T00:51:10.154Z,13.19
2022-09-14T00:54:01.351Z,13.21
2022-09-14T00:56:36.442Z,13.21
2022-09-14T00:59:22.842Z,13.16
2022-09-14T01:02:16.094Z,13.26
2022-09-14T01:05:11.324Z,13.38
2022-09-14T01:08:19.918Z,13.55
2022-09-14T01:11:09.399Z,13.42
2022-09-14T01:14:04.555Z,13.32
2022-09-14T01:16:57.972Z,13.47
2022-09-14T01:19:57.374Z,13.49
2022-09-14T01:22:45.724Z,13.42
2022-09-14T01:28:54.185Z,13.44
2022-09-14T01:31:58.785Z,13.65
2022-09-14T01:35:03.311Z,13.77
2022-09-14T01:38:06.853Z,13.88
2022-09-14T01:44:23.158Z,13.96
2022-09-14T01:47:24.575Z,13.98
2022-09-14T01:50:23.085Z,14.03
2022-09-14T01:53:02.153Z,14.12
2022-09-14T01:56:04.638Z,14.04
2022-09-14T01:58:59.640Z,14.10
2022-09-14T02:01:50.182Z,14.16
2022-09-14T02:04:49.271Z,14.11
2022-09-14T02:07:27.059Z,14.01
2022-09-14T02:10:16.947Z,14.38
2022-09-14T02:13:04.368Z,14.37
2022-09-14T02:21:43.210Z,14.61
2022-09-14T02:24:46.437Z,14.83
2022-09-14T02:27:29.413Z,14.81
2022-09-14T02:30:23.245Z,14.75
2022-09-14T02:33:14.146Z,14.89
2022-09-14T02:36:02.167Z,14.79
2022-09-14T02:38:48.143Z,14.86
2022-09-14T02:41:38.588Z,14.83
2022-09-14T02:44:45.251Z,14.97
2022-09-14T02:47:59.493Z,14.96
2022-09-14T02:50:42.603Z,14.98
2022-09-14T02:53:47.555Z,15.10
2022-09-14T02:56:39.764Z,15.05
2022-09-14T02:59:27.399Z,14.98
2022-09-14T03:02:05.602Z,15.20
2022-09-14T03:04:51.948Z,15.28
2022-09-14T03:10:28.647Z,15.29
2022-09-14T03:13:17.575Z,15.47
2022-09-14T03:15:58.923Z,15.62
2022-09-14T03:18:39.436Z,15.53
2022-09-14T03:21:33.466Z,15.39
2022-09-14T03:24:11.838Z,15.50
2022-09-14T03:27:03.700Z,15.33
2022-09-14T03:29:41.721Z,15.53
2022-09-14T03:32:19.263Z,15.46
2022-09-14T03:35:01.042Z,14.93
2022-09-14T03:37:41.037Z,15.62
2022-09-14T03:40:31.820Z,15.75
2022-09-14T03:43:16.275Z,15.64
2022-09-14T03:46:01.679Z,15.66
2022-09-14T03:48:42.756Z,15.78
2022-09-14T03:51:26.690Z,15.87
2022-09-14T03:54:12.944Z,15.96
2022-09-14T03:56:51.408Z,15.98
2022-09-14T03:59:40.519Z,16.04
2022-09-14T04:02:18.998Z,16.06
2022-09-14T04:05:03.621Z,16.13
2022-09-14T04:07:41.672Z,16.12
2022-09-14T04:10:34.527Z,16.16
2022-09-14T04:16:18.083Z,16.14
2022-09-14T04:19:02.727Z,16.13
2022-09-14T04:24:47.386Z,16.29
2022-09-14T04:27:24.220Z,16.29
2022-09-14T04:30:08.262Z,16.34
2022-09-14T04:32:54.805Z,16.51
2022-09-14T04:35:32.952Z,16.52
2022-09-14T04:38:12.081Z,16.52
2022-09-14T04:40:50.183Z,16.59
2022-09-14T04:44:00.676Z,16.34
2022-09-14T04:46:42.131Z,16.55
2022-09-14T04:49:25.794Z,16.58
2022-09-14T04:52:06.253Z,16.60
2022-09-14T04:54:41.968Z,16.59
2022-09-14T04:57:36.672Z,16.64
2022-09-14T05:00:23.271Z,16.73
2022-09-14T05:03:22.725Z,16.72
2022-09-14T05:06:30.553Z,16.85
2022-09-14T05:09:06.704Z,16.97
2022-09-14T05:11:47.952Z,16.95
2022-09-14T05:14:32.249Z,16.92
2022-09-14T05:17:06.731Z,16.99
2022-09-14T05:19:46.893Z,17.14
2022-09-14T05:22:49.562Z,17.19
2022-09-14T05:25:31.794Z,17.17
2022-09-14T05:28:26.102Z,17.21
2022-09-14T05:31:05.523Z,17.02
2022-09-14T05:33:51.286Z,17.12
2022-09-14T05:36:31.516Z,17.16
2022-09-14T05:39:28.816Z,17.22
2022-09-14T05:42:09.699Z,17.22
2022-09-14T05:44:52.984Z,17.25
2022-09-14T05:47:59.948Z,17.13
2022-09-14T05:50:42.267Z,17.02
2022-09-14T05:53:19.841Z,17.17
2022-09-14T05:56:23.868Z,17.16
2022-09-14T05:59:25.426Z,17.21
2022-09-14T06:02:27.366Z,17.45
2022-09-14T06:05:15.521Z,17.51
2022-09-14T06:08:02.427Z,17.52
2022-09-14T06:11:00.089Z,17.58
2022-09-14T06:13:50.009Z,17.45
2022-09-14T06:16:29.445Z,17.42
2022-09-14T06:22:02.060Z,17.87
2022-09-14T06:24:39.676Z,17.79
2022-09-14T06:27:22.855Z,17.72
2022-09-14T06:30:03.962Z,17.44
2022-09-14T06:32:42.261Z,17.68
2022-09-14T06:35:19.438Z,17.72
2022-09-14T06:37:59.872Z,17.79
2022-09-14T06:40:44.750Z,17.67
2022-09-14T06:43:22.856Z,17.62
2022-09-14T06:46:29.227Z,17.51
2022-09-14T06:49:08.840Z,17.54
2022-09-14T06:51:56.293Z,17.68
2022-09-14T07:00:20.756Z,17.61
2022-09-14T07:03:15.017Z,17.37
2022-09-14T07:06:07.623Z,17.55
2022-09-14T07:08:47.517Z,17.47
2022-09-14T07:11:42.480Z,17.42
2022-09-14T07:14:32.198Z,17.44
2022-09-14T07:17:29.968Z,17.36
2022-09-14T07:20:10.503Z,17.37
2022-09-14T07:22:53.584Z,17.37
2022-09-14T07:25:33.485Z,17.29
2022-09-14T07:28:15.621Z,17.27
2022-09-14T07:30:59.109Z,17.14
2022-09-14T07:33:37.542Z,17.00
2022-09-14T07:36:15.867Z,16.99
2022-09-14T07:38:53.805Z,16.94
2022-09-14T07:41:33.071Z,16.90
2022-09-14T07:44:21.558Z,16.80
2022-09-14T07:47:04.103Z,16.24
2022-09-14T07:49:39.853Z,16.65
2022-09-14T07:52:35.565Z,16.63
2022-09-14T07:55:15.428Z,16.56
2022-09-14T07:57:56.453Z,16.42
2022-09-14T08:00:38.051Z,16.28
2022-09-14T08:03:23.537Z,16.18
2022-09-14T08:06:12.281Z,16.13
2022-09-14T08:09:03.211Z,16.03
2022-09-14T08:11:52.165Z,15.95
2022-09-14T08:14:32.495Z,15.86
2022-09-14T08:17:13.174Z,15.70
2022-09-14T08:19:57.729Z,15.53
2022-09-14T08:22:36.661Z,15.33
2022-09-14T08:25:27.982Z,15.09
2022-09-14T08:28:12.837Z,14.87
2022-09-14T08:31:01.310Z,14.61
2022-09-14T08:33:52.342Z,14.38
2022-09-14T08:36:58.323Z,14.21
2022-09-14T08:39:35.105Z,14.09
2022-09-14T08:45:27.391Z,13.79
2022-09-14T08:48:22.569Z,13.65
2022-09-14T08:51:21.202Z,13.54
2022-09-14T08:54:09.935Z,13.38
2022-09-14T08:56:58.415Z,13.20
2022-09-14T09:03:07.617Z,12.74
2022-09-14T09:06:15.924Z,12.61
2022-09-14T09:09:03.605Z,12.43
2022-09-14T09:11:58.286Z,12.28
2022-09-14T09:14:59.565Z,11.58
2022-09-14T09:17:52.522Z,12.15
2022-09-14T09:20:47.420Z,12.11
2022-09-14T09:23:41.558Z,12.05
2022-09-14T09:26:36.115Z,11.85
2022-09-14T09:29:37.543Z,12.01
2022-09-14T09:32:23.658Z,11.98
2022-09-14T09:35:13.698Z,11.97
2022-09-14T09:38:06.688Z,11.89
2022-09-14T09:40:54.853Z,11.88
2022-09-14T09:46:20.912Z,11.79
2022-09-14T09:49:00.316Z,11.74
2022-09-14T09:51:49.986Z,11.65
2022-09-14T09:54:53.746Z,11.56
2022-09-14T09:57:51.434Z,11.48
2022-09-14T10:00:45.953Z,11.33
2022-09-14T10:03:36.934Z,11.16
2022-09-14T10:06:18.002Z,10.74
2022-09-14T10:09:00.068Z,10.79
2022-09-14T10:11:42.673Z,10.56
2022-09-14T10:14:49.117Z,10.42
2022-09-14T10:17:38.596Z,10.19
2022-09-14T10:20:38.632Z,10.06
2022-09-14T10:24:18.266Z,9.91
2022-09-14T10:27:04.023Z,9.92
2022-09-14T10:29:51.098Z,9.82
2022-09-14T10:32:42.931Z,9.79
2022-09-14T10:35:23.923Z,9.68
2022-09-14T10:38:19.871Z,9.46
2022-09-14T10:41:37.497Z,9.27
2022-09-14T10:44:57.686Z,9.17
2022-09-14T10:48:17.624Z,9.17
2022-09-14T10:51:05.358Z,9.16
2022-09-14T10:54:00.038Z,9.02
2022-09-14T10:57:03.929Z,9.02
2022-09-14T10:59:56.310Z,8.89
2022-09-14T11:03:16.962Z,8.88
2022-09-14T11:06:10.940Z,8.76
2022-09-14T11:08:57.350Z,8.70
2022-09-14T11:11:51.044Z,8.68
2022-09-14T11:14:54.624Z,8.33
2022-09-14T11:17:58.256Z,8.49
2022-09-14T11:20:49.730Z,8.40
2022-09-14T11:23:55.219Z,8.28
2022-09-14T11:26:49.141Z,8.11
2022-09-14T11:29:58.068Z,8.25
2022-09-14T11:33:11.557Z,8.29
2022-09-14T11:36:15.309Z,8.17
2022-09-14T11:39:07.013Z,8.12
2022-09-14T11:42:31.870Z,7.88
2022-09-14T11:45:16.150Z,7.76
2022-09-14T11:48:02.798Z,7.99
2022-09-14T11:50:42.770Z,8.05
2022-09-14T11:53:28.067Z,7.28
2022-09-14T11:56:11.067Z,7.93
2022-09-14T11:59:08.466Z,7.93
2022-09-14T12:01:55.404Z,7.73
2022-09-14T12:04:34.469Z,7.92
2022-09-14T12:07:31.000Z,7.95
2022-09-14T12:10:34.532Z,7.91
2022-09-14T12:13:33.748Z,7.92
2022-09-14T12:16:14.416Z,7.94
2022-09-14T12:22:51.364Z,7.80
2022-09-14T12:25:25.369Z,7.70
2022-09-14T12:28:13.061Z,7.72
2022-09-14T12:34:48.746Z,7.86
2022-09-14T12:37:53.136Z,7.86
2022-09-14T12:41:01.153Z,7.94
2022-09-14T12:44:11.794Z,7.87
2022-09-14T12:46:59.003Z,7.54
2022-09-14T12:53:06.504Z,7.65
2022-09-14T12:56:08.169Z,7.77
2022-09-14T12:59:04.647Z,7.84
2022-09-14T13:05:33.889Z,7.39
2022-09-14T13:08:40.729Z,7.33
2022-09-14T13:11:34.987Z,7.38
2022-09-14T13:14:08.873Z,7.35
2022-09-14T13:17:28.971Z,7.23
2022-09-14T13:20:09.431Z,6.64
2022-09-14T13:22:58.957Z,6.62
2022-09-14T13:32:03.073Z,6.62
2022-09-14T13:34:46.650Z,6.61
2022-09-14T13:37:31.332Z,6.60
2022-09-14T13:42:59.931Z,6.65
2022-09-14T13:45:55.724Z,6.70
2022-09-14T13:48:35.561Z,6.72
2022-09-14T13:51:27.258Z,6.70
2022-09-14T13:54:09.209Z,6.70
2022-09-14T13:56:44.634Z,6.70
2022-09-14T13:59:38.468Z,6.72
2022-09-14T14:02:24.854Z,6.67
2022-09-14T14:08:10.554Z,6.44
2022-09-14T14:10:54.010Z,6.41
2022-09-14T14:13:48.016Z,6.45
2022-09-14T14:16:41.697Z,6.53
2022-09-14T14:19:53.606Z,6.62
2022-09-14T14:22:48.824Z,6.19
2022-09-14T14:25:35.207Z,6.48
2022-09-14T14:28:15.148Z,6.47
2022-09-14T14:31:08.551Z,6.44
2022-09-14T14:33:56.221Z,6.33
2022-09-14T14:36:45.845Z,6.28
2022-09-14T14:39:49.540Z,6.22
2022-09-14T14:42:41.198Z,6.15
2022-09-14T14:45:36.234Z,6.24
2022-09-14T14:48:21.013Z,6.45
2022-09-14T14:50:57.548Z,6.43
2022-09-14T14:53:44.015Z,6.43
2022-09-14T14:56:23.004Z,6.44
2022-09-14T15:01:58.957Z,6.45
2022-09-14T15:04:44.652Z,6.54
2022-09-14T15:07:37.586Z,6.55
2022-09-14T15:10:34.831Z,6.57
2022-09-14T15:13:19.904Z,6.64
2022-09-14T15:16:02.287Z,6.59
2022-09-14T15:18:49.929Z,6.43
2022-09-14T15:21:51.725Z,6.21
2022-09-14T15:24:51.274Z,6.20
2022-09-14T15:27:35.553Z,5.93
2022-09-14T15:30:21.953Z,6.12
2022-09-14T15:36:11.948Z,6.01
2022-09-14T15:39:04.099Z,5.99
2022-09-14T15:41:42.318Z,5.91
2022-09-14T15:44:29.136Z,5.82
2022-09-14T15:47:15.194Z,5.71
2022-09-14T15:49:53.865Z,5.72
2022-09-14T15:55:51.312Z,5.68
2022-09-14T15:58:33.375Z,5.57
2022-09-14T16:01:23.050Z,5.54
2022-09-14T16:04:14.686Z,5.42
2022-09-14T16:09:53.427Z,5.30
2022-09-14T16:12:35.917Z,5.34
2022-09-14T16:15:15.662Z,5.36
2022-09-14T16:18:05.928Z,5.33
2022-09-14T16:20:47.515Z,5.28
2022-09-14T16:23:25.747Z,5.24
2022-09-14T16:26:12.748Z,5.05
2022-09-14T16:29:02.201Z,5.26
2022-09-14T16:31:44.125Z,5.34
2022-09-14T16:34:39.942Z,5.29
2022-09-14T16:37:22.940Z,5.26
2022-09-14T16:40:05.104Z,5.27
2022-09-14T16:42:52.631Z,5.21
2022-09-14T16:45:29.944Z,5.08
2022-09-14T16:48:20.950Z,5.06
2022-09-14T16:51:10.275Z,4.96
2022-09-14T16:53:49.172Z,5.07
2022-09-14T16:56:35.755Z,5.19
2022-09-14T16:59:23.486Z,5.13
2022-09-14T17:02:26.033Z,4.83
2022-09-14T17:05:07.775Z,5.10
2022-09-14T17:08:06.367Z,5.13
2022-09-14T17:10:57.145Z,5.16
2022-09-14T17:13:39.890Z,5.27
2022-09-14T17:16:43.581Z,5.33
2022-09-14T17:19:30.876Z,5.34
2022-09-14T17:22:32.903Z,5.31
2022-09-14T17:25:44.836Z,5.16
2022-09-14T17:28:24.682Z,5.11
2022-09-14T17:31:02.860Z,4.42
2022-09-14T17:33:45.113Z,4.95
2022-09-14T17:36:23.664Z,5.02
2022-09-14T17:39:22.239Z,4.95
2022-09-14T17:42:05.884Z,5.02
2022-09-14T17:44:50.955Z,4.98
2022-09-14T17:47:29.751Z,4.97
2022-09-14T17:50:14.856Z,4.82
2022-09-14T17:52:49.102Z,4.95
2022-09-14T17:55:29.250Z,5.00
2022-09-14T17:58:32.800Z,4.98
2022-09-14T18:01:29.421Z,4.96
2022-09-14T18:04:09.431Z,4.98
2022-09-14T18:12:59.141Z,4.81
2022-09-14T18:16:01.872Z,5.01
2022-09-14T18:18:42.539Z,5.12
2022-09-14T18:21:27.658Z,5.19
2022-09-14T18:26:59.501Z,5.16
2022-09-14T18:29:44.070Z,5.19
2022-09-14T18:32:42.977Z,5.08
2022-09-14T18:35:27.635Z,5.16
2022-09-14T18:38:06.584Z,5.11
2022-09-14T18:40:43.181Z,4.92
2022-09-14T18:43:38.415Z,4.86
2022-09-14T18:46:17.571Z,4.73
2022-09-14T18:52:12.472Z,4.76
2022-09-14T18:54:50.239Z,4.89
2022-09-14T18:57:39.929Z,4.96
2022-09-14T19:00:28.791Z,5.05
2022-09-14T19:03:10.932Z,5.11
2022-09-14T19:05:56.881Z,5.07
2022-09-14T19:08:41.540Z,5.05
2022-09-14T19:11:25.248Z,5.08
2022-09-14T19:14:30.371Z,5.12
2022-09-14T19:17:20.441Z,5.05
2022-09-14T19:20:03.701Z,4.93
2022-09-14T19:22:54.530Z,5.01
2022-09-14T19:26:01.475Z,4.63
2022-09-14T19:28:44.192Z,5.13
2022-09-14T19:31:27.851Z,5.06
2022-09-14T19:34:23.336Z,5.08
2022-09-14T19:37:02.854Z,5.10
2022-09-14T19:39:55.685Z,5.16
2022-09-14T19:42:38.790Z,5.11
2022-09-14T19:45:31.240Z,5.19
2022-09-14T19:48:10.878Z,5.24
2022-09-14T19:50:50.731Z,5.17
2022-09-14T19:53:55.847Z,5.03
2022-09-14T19:56:50.957Z,5.25
2022-09-14T19:59:41.968Z,5.29
2022-09-14T20:02:17.284Z,5.15
2022-09-14T20:04:58.408Z,5.22
2022-09-14T20:07:37.775Z,5.19
2022-09-14T20:10:14.249Z,5.03
2022-09-14T20:12:56.814Z,5.22
2022-09-14T20:15:42.510Z,5.39
2022-09-14T20:18:31.080Z,5.43
2022-09-14T20:21:11.569Z,5.37
2022-09-14T20:24:14.750Z,5.40
2022-09-14T20:26:52.891Z,5.55
2022-09-14T20:29:47.378Z,5.65
2022-09-14T20:32:45.022Z,5.71
2022-09-14T20:35:27.523Z,5.72
2022-09-14T20:38:02.960Z,5.73
2022-09-14T20:40:40.075Z,5.74
2022-09-14T20:43:26.501Z,5.83
2022-09-14T20:46:21.046Z,5.75
2022-09-14T20:48:59.556Z,6.19
2022-09-14T20:55:14.239Z,6.39
2022-09-14T20:57:52.715Z,6.86
2022-09-14T21:00:39.146Z,6.98
2022-09-14T21:03:49.106Z,7.16
2022-09-14T21:06:31.363Z,7.37
2022-09-14T21:09:16.239Z,7.51
2022-09-14T21:12:15.629Z,7.64
2022-09-14T21:20:45.253Z,8.00
2022-09-14T21:23:23.635Z,8.10
2022-09-14T21:26:12.834Z,8.19
2022-09-14T21:28:57.980Z,8.36
2022-09-14T21:31:35.847Z,8.03
2022-09-14T21:34:28.909Z,8.58
2022-09-14T21:37:10.990Z,8.82
2022-09-14T21:39:54.526Z,8.79
2022-09-14T21:42:31.150Z,9.09
2022-09-14T21:45:18.198Z,9.22
2022-09-14T21:48:00.720Z,8.92
2022-09-14T21:51:07.328Z,9.57
2022-09-14T21:54:04.086Z,9.69
2022-09-14T21:57:05.908Z,9.88
2022-09-14T21:59:39.828Z,10.02
2022-09-14T22:02:21.322Z,9.96
2022-09-14T22:05:07.357Z,10.37
2022-09-14T22:07:57.991Z,10.55
2022-09-14T22:11:04.211Z,10.74
2022-09-14T22:13:43.594Z,10.94
2022-09-14T22:16:33.045Z,11.06
2022-09-14T22:19:32.285Z,11.23
2022-09-14T22:22:12.606Z,11.52
2022-09-14T22:24:49.191Z,11.72
2022-09-14T22:27:42.613Z,11.85
2022-09-14T22:33:21.313Z,12.30
2022-09-14T22:36:18.881Z,12.55
2022-09-14T22:39:11.312Z,12.59
2022-09-14T22:42:00.674Z,12.93
2022-09-14T22:45:00.808Z,13.16
2022-09-14T22:47:47.485Z,13.38
2022-09-14T22:50:28.135Z,13.47
2022-09-14T22:53:06.699Z,13.65
2022-09-14T22:55:46.155Z,13.70
2022-09-14T22:58:34.635Z,13.98
2022-09-14T23:01:33.756Z,14.29
2022-09-14T23:04:20.680Z,14.38
2022-09-14T23:07:07.100Z,14.60
2022-09-14T23:09:52.641Z,14.84
2022-09-14T23:12:40.181Z,15.14
2022-09-14T23:15:24.908Z,15.17
2022-09-14T23:18:07.503Z,15.58
2022-09-14T23:20:51.237Z,15.74
2022-09-14T23:23:28.869Z,16.02
2022-09-14T23:26:22.144Z,16.08
2022-09-14T23:29:03.446Z,16.09
2022-09-14T23:31:55.407Z,16.12
2022-09-14T23:34:42.497Z,16.22
2022-09-14T23:37:27.644Z,16.30
2022-09-14T23:40:14.109Z,16.30
2022-09-14T23:42:53.334Z,16.47
2022-09-14T23:45:32.782Z,16.60
2022-09-14T23:48:17.401Z,16.52
2022-09-14T23:51:21.207Z,16.88
2022-09-14T23:54:05.849Z,16.96
2022-09-14T23:56:45.464Z,16.83
2022-09-14T23:59:30.991Z,16.94
